sensor_id;sensor_type;location;lat;lon;timestamp;P1;durP1;ratioP1;P2;durP2;ratioP2
13173;SDS011;6652;48.802;9.190;2023-04-25T00:11:21;1.33;;;1.17;;
13173;SDS011;6652;48.802;9.190;2023-04-25T00:14:12;2.15;;;1.25;;
13173;SDS011;6652;48.802;9.190;2023-04-25T00:17:03;1.42;;;0.98;;
13173;SDS011;6652;48.802;9.190;2023-04-25T00:19:50;0.73;;;0.70;;
13173;SDS011;6652;48.802;9.190;2023-04-25T00:32:29;1.58;;;1.30;;
13173;SDS011;6652;48.802;9.190;2023-04-25T00:39:13;3.05;;;1.17;;
13173;SDS011;6652;48.802;9.190;2023-04-25T00:43:15;2.28;;;1.30;;
13173;SDS011;6652;48.802;9.190;2023-04-25T00:52:20;1.80;;;1.20;;
13173;SDS011;6652;48.802;9.190;2023-04-25T00:58:28;3.97;;;1.42;;
13173;SDS011;6652;48.802;9.190;2023-04-25T01:01:23;2.33;;;1.33;;
13173;SDS011;6652;48.802;9.190;2023-04-25T01:07:38;3.13;;;1.20;;
13173;SDS011;6652;48.802;9.190;2023-04-25T01:11:06;2.22;;;1.40;;
13173;SDS011;6652;48.802;9.190;2023-04-25T01:16:56;5.28;;;1.50;;
13173;SDS011;6652;48.802;9.190;2023-04-25T01:19:51;5.65;;;1.70;;
13173;SDS011;6652;48.802;9.190;2023-04-25T01:23:00;2.03;;;1.30;;
13173;SDS011;6652;48.802;9.190;2023-04-25T01:26:03;3.13;;;1.45;;
13173;SDS011;6652;48.802;9.190;2023-04-25T01:32:09;2.28;;;1.30;;
13173;SDS011;6652;48.802;9.190;2023-04-25T01:34:57;2.55;;;1.52;;
13173;SDS011;6652;48.802;9.190;2023-04-25T01:38:03;2.75;;;1.67;;
13173;SDS011;6652;48.802;9.190;2023-04-25T01:44:16;6.07;;;1.40;;
13173;SDS011;6652;48.802;9.190;2023-04-25T01:47:15;4.97;;;1.92;;
13173;SDS011;6652;48.802;9.190;2023-04-25T01:50:35;3.47;;;1.30;;
13173;SDS011;6652;48.802;9.190;2023-04-25T01:53:24;2.35;;;1.63;;
13173;SDS011;6652;48.802;9.190;2023-04-25T01:59:49;1.77;;;1.45;;
13173;SDS011;6652;48.802;9.190;2023-04-25T02:02:33;2.45;;;1.35;;
13173;SDS011;6652;48.802;9.190;2023-04-25T02:05:30;2.65;;;1.50;;
13173;SDS011;6652;48.802;9.190;2023-04-25T02:09:02;2.17;;;1.50;;
13173;SDS011;6652;48.802;9.190;2023-04-25T02:12:28;4.07;;;1.63;;
13173;SDS011;6652;48.802;9.190;2023-04-25T02:18:51;2.63;;;1.52;;
13173;SDS011;6652;48.802;9.190;2023-04-25T02:21:43;5.88;;;1.73;;
13173;SDS011;6652;48.802;9.190;2023-04-25T02:27:55;1.80;;;1.42;;
13173;SDS011;6652;48.802;9.190;2023-04-25T02:31:12;4.43;;;1.95;;
13173;SDS011;6652;48.802;9.190;2023-04-25T02:34:29;3.70;;;1.60;;
13173;SDS011;6652;48.802;9.190;2023-04-25T02:37:37;5.78;;;2.00;;
13173;SDS011;6652;48.802;9.190;2023-04-25T02:47:45;3.40;;;1.88;;
13173;SDS011;6652;48.802;9.190;2023-04-25T02:50:40;6.95;;;2.10;;
13173;SDS011;6652;48.802;9.190;2023-04-25T02:53:38;3.30;;;1.85;;
13173;SDS011;6652;48.802;9.190;2023-04-25T03:03:25;3.53;;;1.77;;
13173;SDS011;6652;48.802;9.190;2023-04-25T03:06:16;4.05;;;1.85;;
13173;SDS011;6652;48.802;9.190;2023-04-25T03:09:34;3.17;;;1.70;;
13173;SDS011;6652;48.802;9.190;2023-04-25T03:12:28;5.35;;;1.67;;
13173;SDS011;6652;48.802;9.190;2023-04-25T03:21:13;4.72;;;1.70;;
13173;SDS011;6652;48.802;9.190;2023-04-25T03:27:14;4.82;;;1.92;;
13173;SDS011;6652;48.802;9.190;2023-04-25T03:29:57;3.92;;;1.73;;
13173;SDS011;6652;48.802;9.190;2023-04-25T03:36:14;1.67;;;1.48;;
13173;SDS011;6652;48.802;9.190;2023-04-25T03:39:05;3.08;;;2.03;;
13173;SDS011;6652;48.802;9.190;2023-04-25T03:42:15;7.53;;;1.75;;
13173;SDS011;6652;48.802;9.190;2023-04-25T03:44:53;2.13;;;1.45;;
13173;SDS011;6652;48.802;9.190;2023-04-25T03:47:54;4.57;;;1.70;;
13173;SDS011;6652;48.802;9.190;2023-04-25T03:50:51;5.88;;;1.88;;
13173;SDS011;6652;48.802;9.190;2023-04-25T03:53:51;3.28;;;1.80;;
13173;SDS011;6652;48.802;9.190;2023-04-25T03:56:34;3.08;;;1.73;;
13173;SDS011;6652;48.802;9.190;2023-04-25T04:00:00;7.35;;;1.95;;
13173;SDS011;6652;48.802;9.190;2023-04-25T04:02:38;2.85;;;1.77;;
13173;SDS011;6652;48.802;9.190;2023-04-25T04:05:36;3.92;;;1.80;;
13173;SDS011;6652;48.802;9.190;2023-04-25T04:08:53;5.10;;;1.73;;
13173;SDS011;6652;48.802;9.190;2023-04-25T04:11:51;6.95;;;2.03;;
13173;SDS011;6652;48.802;9.190;2023-04-25T04:14:27;3.42;;;2.10;;
13173;SDS011;6652;48.802;9.190;2023-04-25T04:17:08;5.53;;;1.80;;
13173;SDS011;6652;48.802;9.190;2023-04-25T04:19:51;5.43;;;2.00;;
13173;SDS011;6652;48.802;9.190;2023-04-25T04:25:20;3.53;;;1.83;;
13173;SDS011;6652;48.802;9.190;2023-04-25T04:27:57;4.47;;;2.00;;
13173;SDS011;6652;48.802;9.190;2023-04-25T04:30:31;3.75;;;1.92;;
13173;SDS011;6652;48.802;9.190;2023-04-25T04:33:07;6.75;;;2.17;;
13173;SDS011;6652;48.802;9.190;2023-04-25T04:35:55;3.97;;;2.08;;
13173;SDS011;6652;48.802;9.190;2023-04-25T04:38:29;3.60;;;2.22;;
13173;SDS011;6652;48.802;9.190;2023-04-25T04:41:03;5.55;;;2.00;;
13173;SDS011;6652;48.802;9.190;2023-04-25T04:44:06;5.28;;;2.00;;
13173;SDS011;6652;48.802;9.190;2023-04-25T04:46:55;4.53;;;2.08;;
13173;SDS011;6652;48.802;9.190;2023-04-25T04:49:43;5.88;;;2.47;;
13173;SDS011;6652;48.802;9.190;2023-04-25T04:52:22;6.18;;;3.00;;
13173;SDS011;6652;48.802;9.190;2023-04-25T04:54:58;5.38;;;2.50;;
13173;SDS011;6652;48.802;9.190;2023-04-25T04:57:42;6.60;;;2.53;;
13173;SDS011;6652;48.802;9.190;2023-04-25T05:00:21;3.83;;;2.05;;
13173;SDS011;6652;48.802;9.190;2023-04-25T05:02:54;8.05;;;2.60;;
13173;SDS011;6652;48.802;9.190;2023-04-25T05:05:56;7.07;;;2.70;;
13173;SDS011;6652;48.802;9.190;2023-04-25T05:08:33;6.25;;;2.38;;
13173;SDS011;6652;48.802;9.190;2023-04-25T05:11:07;6.07;;;2.22;;
13173;SDS011;6652;48.802;9.190;2023-04-25T05:13:36;6.80;;;2.38;;
13173;SDS011;6652;48.802;9.190;2023-04-25T05:16:03;5.05;;;2.65;;
13173;SDS011;6652;48.802;9.190;2023-04-25T05:18:56;7.60;;;2.40;;
13173;SDS011;6652;48.802;9.190;2023-04-25T05:21:35;5.70;;;2.10;;
13173;SDS011;6652;48.802;9.190;2023-04-25T05:24:02;8.65;;;2.70;;
13173;SDS011;6652;48.802;9.190;2023-04-25T05:26:40;6.45;;;2.47;;
13173;SDS011;6652;48.802;9.190;2023-04-25T05:29:16;8.55;;;2.60;;
13173;SDS011;6652;48.802;9.190;2023-04-25T05:31:48;5.10;;;2.75;;
13173;SDS011;6652;48.802;9.190;2023-04-25T05:34:18;5.45;;;2.60;;
13173;SDS011;6652;48.802;9.190;2023-04-25T05:36:46;4.90;;;2.45;;
13173;SDS011;6652;48.802;9.190;2023-04-25T05:39:16;3.15;;;2.35;;
13173;SDS011;6652;48.802;9.190;2023-04-25T05:42:00;6.55;;;2.95;;
13173;SDS011;6652;48.802;9.190;2023-04-25T05:44:31;5.53;;;3.47;;
13173;SDS011;6652;48.802;9.190;2023-04-25T05:47:00;3.75;;;2.72;;
13173;SDS011;6652;48.802;9.190;2023-04-25T05:49:59;6.40;;;2.95;;
13173;SDS011;6652;48.802;9.190;2023-04-25T05:52:32;5.57;;;3.20;;
13173;SDS011;6652;48.802;9.190;2023-04-25T05:55:15;5.15;;;2.97;;
13173;SDS011;6652;48.802;9.190;2023-04-25T06:01:12;4.57;;;2.83;;
13173;SDS011;6652;48.802;9.190;2023-04-25T06:03:40;5.35;;;2.80;;
13173;SDS011;6652;48.802;9.190;2023-04-25T06:06:07;6.40;;;3.00;;
13173;SDS011;6652;48.802;9.190;2023-04-25T06:08:36;4.70;;;2.78;;
13173;SDS011;6652;48.802;9.190;2023-04-25T06:11:03;3.65;;;2.97;;
13173;SDS011;6652;48.802;9.190;2023-04-25T06:13:31;3.28;;;2.47;;
13173;SDS011;6652;48.802;9.190;2023-04-25T06:15:57;3.40;;;2.70;;
13173;SDS011;6652;48.802;9.190;2023-04-25T06:18:26;4.03;;;2.70;;
13173;SDS011;6652;48.802;9.190;2023-04-25T06:20:52;4.53;;;2.60;;
13173;SDS011;6652;48.802;9.190;2023-04-25T06:23:19;4.72;;;2.60;;
13173;SDS011;6652;48.802;9.190;2023-04-25T06:25:46;3.80;;;2.63;;
13173;SDS011;6652;48.802;9.190;2023-04-25T06:28:13;4.82;;;2.47;;
13173;SDS011;6652;48.802;9.190;2023-04-25T06:30:41;4.90;;;2.20;;
13173;SDS011;6652;48.802;9.190;2023-04-25T06:33:07;8.20;;;2.80;;
13173;SDS011;6652;48.802;9.190;2023-04-25T06:35:36;6.60;;;2.13;;
13173;SDS011;6652;48.802;9.190;2023-04-25T06:38:02;3.15;;;2.10;;
13173;SDS011;6652;48.802;9.190;2023-04-25T06:40:29;3.95;;;2.50;;
13173;SDS011;6652;48.802;9.190;2023-04-25T06:42:56;5.40;;;2.40;;
13173;SDS011;6652;48.802;9.190;2023-04-25T06:45:23;3.70;;;2.63;;
13173;SDS011;6652;48.802;9.190;2023-04-25T06:47:49;3.92;;;3.20;;
13173;SDS011;6652;48.802;9.190;2023-04-25T06:50:16;6.22;;;2.70;;
13173;SDS011;6652;48.802;9.190;2023-04-25T06:52:45;6.43;;;2.45;;
13173;SDS011;6652;48.802;9.190;2023-04-25T06:55:11;2.80;;;2.25;;
13173;SDS011;6652;48.802;9.190;2023-04-25T06:57:38;4.13;;;2.78;;
13173;SDS011;6652;48.802;9.190;2023-04-25T07:00:05;3.78;;;2.45;;
13173;SDS011;6652;48.802;9.190;2023-04-25T07:02:34;3.53;;;2.80;;
13173;SDS011;6652;48.802;9.190;2023-04-25T07:05:01;4.90;;;2.80;;
13173;SDS011;6652;48.802;9.190;2023-04-25T07:07:29;3.10;;;2.78;;
13173;SDS011;6652;48.802;9.190;2023-04-25T07:09:57;5.18;;;2.85;;
13173;SDS011;6652;48.802;9.190;2023-04-25T07:12:24;5.30;;;3.10;;
13173;SDS011;6652;48.802;9.190;2023-04-25T07:14:50;4.85;;;2.83;;
13173;SDS011;6652;48.802;9.190;2023-04-25T07:17:17;8.35;;;3.53;;
13173;SDS011;6652;48.802;9.190;2023-04-25T07:19:44;5.82;;;4.10;;
13173;SDS011;6652;48.802;9.190;2023-04-25T07:22:11;4.35;;;3.92;;
13173;SDS011;6652;48.802;9.190;2023-04-25T07:24:37;4.80;;;3.58;;
13173;SDS011;6652;48.802;9.190;2023-04-25T07:27:05;6.82;;;4.30;;
13173;SDS011;6652;48.802;9.190;2023-04-25T07:29:32;4.63;;;3.95;;
13173;SDS011;6652;48.802;9.190;2023-04-25T07:32:02;6.20;;;3.70;;
13173;SDS011;6652;48.802;9.190;2023-04-25T07:34:29;5.40;;;3.58;;
13173;SDS011;6652;48.802;9.190;2023-04-25T07:36:57;5.32;;;3.80;;
13173;SDS011;6652;48.802;9.190;2023-04-25T07:39:24;6.53;;;4.07;;
13173;SDS011;6652;48.802;9.190;2023-04-25T07:41:51;5.05;;;3.70;;
13173;SDS011;6652;48.802;9.190;2023-04-25T07:44:19;5.40;;;3.53;;
13173;SDS011;6652;48.802;9.190;2023-04-25T07:46:46;5.13;;;3.42;;
13173;SDS011;6652;48.802;9.190;2023-04-25T07:49:13;7.82;;;3.92;;
13173;SDS011;6652;48.802;9.190;2023-04-25T07:51:39;6.38;;;4.38;;
13173;SDS011;6652;48.802;9.190;2023-04-25T07:54:08;6.55;;;3.92;;
13173;SDS011;6652;48.802;9.190;2023-04-25T07:56:35;5.70;;;4.05;;
13173;SDS011;6652;48.802;9.190;2023-04-25T07:59:01;6.75;;;4.40;;
13173;SDS011;6652;48.802;9.190;2023-04-25T08:01:30;5.50;;;4.00;;
13173;SDS011;6652;48.802;9.190;2023-04-25T08:03:56;9.30;;;4.75;;
13173;SDS011;6652;48.802;9.190;2023-04-25T08:06:23;6.40;;;4.90;;
13173;SDS011;6652;48.802;9.190;2023-04-25T08:08:50;6.38;;;4.63;;
13173;SDS011;6652;48.802;9.190;2023-04-25T08:11:17;6.10;;;4.72;;
13173;SDS011;6652;48.802;9.190;2023-04-25T08:13:43;11.15;;;5.20;;
13173;SDS011;6652;48.802;9.190;2023-04-25T08:16:10;6.70;;;4.63;;
13173;SDS011;6652;48.802;9.190;2023-04-25T08:18:38;10.27;;;5.25;;
13173;SDS011;6652;48.802;9.190;2023-04-25T08:21:05;10.50;;;6.78;;
13173;SDS011;6652;48.802;9.190;2023-04-25T08:23:33;6.65;;;4.15;;
13173;SDS011;6652;48.802;9.190;2023-04-25T08:26:00;6.60;;;3.70;;
13173;SDS011;6652;48.802;9.190;2023-04-25T08:28:27;9.02;;;4.30;;
13173;SDS011;6652;48.802;9.190;2023-04-25T08:30:54;8.43;;;4.45;;
13173;SDS011;6652;48.802;9.190;2023-04-25T08:33:21;7.13;;;3.92;;
13173;SDS011;6652;48.802;9.190;2023-04-25T08:35:49;6.40;;;3.95;;
13173;SDS011;6652;48.802;9.190;2023-04-25T08:38:16;4.68;;;3.60;;
13173;SDS011;6652;48.802;9.190;2023-04-25T08:40:44;5.75;;;3.95;;
13173;SDS011;6652;48.802;9.190;2023-04-25T08:43:15;9.93;;;4.03;;
13173;SDS011;6652;48.802;9.190;2023-04-25T08:45:45;8.27;;;3.95;;
13173;SDS011;6652;48.802;9.190;2023-04-25T08:48:12;5.63;;;3.80;;
13173;SDS011;6652;48.802;9.190;2023-04-25T08:50:40;3.90;;;3.50;;
13173;SDS011;6652;48.802;9.190;2023-04-25T08:53:13;6.80;;;3.60;;
13173;SDS011;6652;48.802;9.190;2023-04-25T08:55:44;6.10;;;3.47;;
13173;SDS011;6652;48.802;9.190;2023-04-25T08:58:12;7.65;;;3.72;;
13173;SDS011;6652;48.802;9.190;2023-04-25T09:00:39;5.57;;;3.40;;
13173;SDS011;6652;48.802;9.190;2023-04-25T09:03:06;5.57;;;3.20;;
13173;SDS011;6652;48.802;9.190;2023-04-25T09:05:33;3.80;;;3.28;;
13173;SDS011;6652;48.802;9.190;2023-04-25T09:08:01;6.90;;;3.97;;
13173;SDS011;6652;48.802;9.190;2023-04-25T09:10:29;4.97;;;3.60;;
13173;SDS011;6652;48.802;9.190;2023-04-25T09:13:02;8.60;;;4.50;;
13173;SDS011;6652;48.802;9.190;2023-04-25T09:15:31;9.02;;;3.70;;
13173;SDS011;6652;48.802;9.190;2023-04-25T09:17:58;5.15;;;3.85;;
13173;SDS011;6652;48.802;9.190;2023-04-25T09:20:25;4.75;;;3.25;;
13173;SDS011;6652;48.802;9.190;2023-04-25T09:23:02;7.22;;;4.15;;
13173;SDS011;6652;48.802;9.190;2023-04-25T09:25:34;6.57;;;3.75;;
13173;SDS011;6652;48.802;9.190;2023-04-25T09:28:04;9.63;;;3.75;;
13173;SDS011;6652;48.802;9.190;2023-04-25T09:30:33;4.30;;;3.58;;
13173;SDS011;6652;48.802;9.190;2023-04-25T09:33:04;5.32;;;3.72;;
13173;SDS011;6652;48.802;9.190;2023-04-25T09:35:35;5.85;;;3.75;;
13173;SDS011;6652;48.802;9.190;2023-04-25T09:38:07;5.40;;;3.30;;
13173;SDS011;6652;48.802;9.190;2023-04-25T09:40:39;6.55;;;3.10;;
13173;SDS011;6652;48.802;9.190;2023-04-25T09:43:10;4.63;;;3.30;;
13173;SDS011;6652;48.802;9.190;2023-04-25T09:45:40;6.00;;;3.40;;
13173;SDS011;6652;48.802;9.190;2023-04-25T09:50:37;6.10;;;2.85;;
13173;SDS011;6652;48.802;9.190;2023-04-25T09:53:05;3.95;;;2.80;;
13173;SDS011;6652;48.802;9.190;2023-04-25T09:55:32;4.90;;;3.22;;
13173;SDS011;6652;48.802;9.190;2023-04-25T09:58:03;5.32;;;3.58;;
13173;SDS011;6652;48.802;9.190;2023-04-25T10:00:32;5.72;;;3.35;;
13173;SDS011;6652;48.802;9.190;2023-04-25T10:03:00;4.03;;;2.45;;
13173;SDS011;6652;48.802;9.190;2023-04-25T10:05:29;5.95;;;2.78;;
13173;SDS011;6652;48.802;9.190;2023-04-25T10:07:58;4.18;;;3.38;;
13173;SDS011;6652;48.802;9.190;2023-04-25T10:10:28;5.53;;;2.85;;
13173;SDS011;6652;48.802;9.190;2023-04-25T10:13:00;7.18;;;4.30;;
13173;SDS011;6652;48.802;9.190;2023-04-25T10:15:32;6.72;;;3.92;;
13173;SDS011;6652;48.802;9.190;2023-04-25T10:18:01;4.45;;;3.75;;
13173;SDS011;6652;48.802;9.190;2023-04-25T10:20:29;11.88;;;6.55;;
13173;SDS011;6652;48.802;9.190;2023-04-25T10:22:57;8.55;;;5.20;;
13173;SDS011;6652;48.802;9.190;2023-04-25T10:25:29;9.70;;;5.85;;
13173;SDS011;6652;48.802;9.190;2023-04-25T10:27:56;6.40;;;3.72;;
13173;SDS011;6652;48.802;9.190;2023-04-25T10:30:27;4.53;;;3.22;;
13173;SDS011;6652;48.802;9.190;2023-04-25T10:32:54;4.55;;;3.55;;
13173;SDS011;6652;48.802;9.190;2023-04-25T10:35:24;4.47;;;2.70;;
13173;SDS011;6652;48.802;9.190;2023-04-25T10:37:59;3.55;;;2.20;;
13173;SDS011;6652;48.802;9.190;2023-04-25T10:40:28;3.50;;;2.28;;
13173;SDS011;6652;48.802;9.190;2023-04-25T10:42:56;2.75;;;2.03;;
13173;SDS011;6652;48.802;9.190;2023-04-25T10:46:00;7.15;;;2.70;;
13173;SDS011;6652;48.802;9.190;2023-04-25T10:48:27;7.03;;;3.90;;
13173;SDS011;6652;48.802;9.190;2023-04-25T10:51:06;7.53;;;4.75;;
13173;SDS011;6652;48.802;9.190;2023-04-25T10:53:34;9.13;;;5.28;;
13173;SDS011;6652;48.802;9.190;2023-04-25T10:56:08;12.02;;;5.03;;
13173;SDS011;6652;48.802;9.190;2023-04-25T10:58:36;7.38;;;5.10;;
13173;SDS011;6652;48.802;9.190;2023-04-25T11:01:08;6.57;;;3.08;;
13173;SDS011;6652;48.802;9.190;2023-04-25T11:03:38;4.28;;;2.80;;
13173;SDS011;6652;48.802;9.190;2023-04-25T11:06:07;5.15;;;2.83;;
13173;SDS011;6652;48.802;9.190;2023-04-25T11:08:45;5.38;;;2.80;;
13173;SDS011;6652;48.802;9.190;2023-04-25T11:11:14;2.80;;;2.30;;
13173;SDS011;6652;48.802;9.190;2023-04-25T11:13:42;4.10;;;2.15;;
13173;SDS011;6652;48.802;9.190;2023-04-25T11:16:10;3.20;;;1.90;;
13173;SDS011;6652;48.802;9.190;2023-04-25T11:18:37;4.78;;;2.20;;
13173;SDS011;6652;48.802;9.190;2023-04-25T11:21:03;3.97;;;2.38;;
13173;SDS011;6652;48.802;9.190;2023-04-25T11:23:31;5.43;;;2.55;;
13173;SDS011;6652;48.802;9.190;2023-04-25T11:25:58;3.90;;;2.75;;
13173;SDS011;6652;48.802;9.190;2023-04-25T11:28:26;6.18;;;3.33;;
13173;SDS011;6652;48.802;9.190;2023-04-25T11:30:53;3.60;;;2.97;;
13173;SDS011;6652;48.802;9.190;2023-04-25T11:33:24;3.08;;;2.08;;
13173;SDS011;6652;48.802;9.190;2023-04-25T11:35:52;4.20;;;2.35;;
13173;SDS011;6652;48.802;9.190;2023-04-25T11:38:21;3.53;;;2.53;;
13173;SDS011;6652;48.802;9.190;2023-04-25T11:40:51;2.38;;;2.17;;
13173;SDS011;6652;48.802;9.190;2023-04-25T11:43:19;3.90;;;1.80;;
13173;SDS011;6652;48.802;9.190;2023-04-25T11:45:47;3.10;;;1.80;;
13173;SDS011;6652;48.802;9.190;2023-04-25T11:48:15;2.10;;;1.70;;
13173;SDS011;6652;48.802;9.190;2023-04-25T11:50:43;2.95;;;2.00;;
13173;SDS011;6652;48.802;9.190;2023-04-25T11:53:10;5.03;;;2.13;;
13173;SDS011;6652;48.802;9.190;2023-04-25T11:55:38;4.60;;;3.10;;
13173;SDS011;6652;48.802;9.190;2023-04-25T11:58:05;4.38;;;2.92;;
13173;SDS011;6652;48.802;9.190;2023-04-25T12:00:32;4.18;;;3.25;;
13173;SDS011;6652;48.802;9.190;2023-04-25T12:02:59;5.63;;;4.13;;
13173;SDS011;6652;48.802;9.190;2023-04-25T12:05:28;6.10;;;3.35;;
13173;SDS011;6652;48.802;9.190;2023-04-25T12:08:26;5.30;;;3.08;;
13173;SDS011;6652;48.802;9.190;2023-04-25T12:10:57;4.20;;;3.80;;
13173;SDS011;6652;48.802;9.190;2023-04-25T12:13:28;3.97;;;3.33;;
13173;SDS011;6652;48.802;9.190;2023-04-25T12:16:01;5.80;;;3.70;;
13173;SDS011;6652;48.802;9.190;2023-04-25T12:18:32;13.80;;;3.25;;
13173;SDS011;6652;48.802;9.190;2023-04-25T12:21:11;5.93;;;3.13;;
13173;SDS011;6652;48.802;9.190;2023-04-25T12:23:53;6.57;;;3.60;;
13173;SDS011;6652;48.802;9.190;2023-04-25T12:26:58;5.15;;;3.80;;
13173;SDS011;6652;48.802;9.190;2023-04-25T12:29:27;7.30;;;4.10;;
13173;SDS011;6652;48.802;9.190;2023-04-25T12:32:03;6.20;;;4.30;;
13173;SDS011;6652;48.802;9.190;2023-04-25T12:34:34;5.32;;;3.95;;
13173;SDS011;6652;48.802;9.190;2023-04-25T12:37:01;8.18;;;4.25;;
13173;SDS011;6652;48.802;9.190;2023-04-25T12:39:33;6.13;;;4.32;;
13173;SDS011;6652;48.802;9.190;2023-04-25T12:42:03;8.02;;;4.45;;
13173;SDS011;6652;48.802;9.190;2023-04-25T12:44:33;7.93;;;4.38;;
13173;SDS011;6652;48.802;9.190;2023-04-25T12:47:00;7.97;;;4.20;;
13173;SDS011;6652;48.802;9.190;2023-04-25T12:49:36;7.15;;;4.03;;
13173;SDS011;6652;48.802;9.190;2023-04-25T12:52:03;6.60;;;4.50;;
13173;SDS011;6652;48.802;9.190;2023-04-25T12:54:31;8.07;;;4.85;;
13173;SDS011;6652;48.802;9.190;2023-04-25T12:57:11;6.88;;;4.45;;
13173;SDS011;6652;48.802;9.190;2023-04-25T12:59:44;6.78;;;4.70;;
13173;SDS011;6652;48.802;9.190;2023-04-25T13:02:11;9.52;;;4.55;;
13173;SDS011;6652;48.802;9.190;2023-04-25T13:04:41;7.63;;;4.90;;
13173;SDS011;6652;48.802;9.190;2023-04-25T13:07:14;7.55;;;4.97;;
13173;SDS011;6652;48.802;9.190;2023-04-25T13:09:47;7.95;;;5.25;;
13173;SDS011;6652;48.802;9.190;2023-04-25T13:12:16;10.38;;;5.13;;
13173;SDS011;6652;48.802;9.190;2023-04-25T13:14:43;7.47;;;4.63;;
13173;SDS011;6652;48.802;9.190;2023-04-25T13:17:10;8.50;;;5.43;;
13173;SDS011;6652;48.802;9.190;2023-04-25T13:19:37;9.93;;;5.85;;
13173;SDS011;6652;48.802;9.190;2023-04-25T13:22:04;8.82;;;5.38;;
13173;SDS011;6652;48.802;9.190;2023-04-25T13:24:31;9.27;;;5.57;;
13173;SDS011;6652;48.802;9.190;2023-04-25T13:27:01;9.80;;;5.35;;
13173;SDS011;6652;48.802;9.190;2023-04-25T13:29:31;11.30;;;5.53;;
13173;SDS011;6652;48.802;9.190;2023-04-25T13:32:02;11.48;;;5.70;;
13173;SDS011;6652;48.802;9.190;2023-04-25T13:34:32;8.48;;;5.10;;
13173;SDS011;6652;48.802;9.190;2023-04-25T13:37:02;14.50;;;6.32;;
13173;SDS011;6652;48.802;9.190;2023-04-25T13:39:32;10.73;;;6.15;;
13173;SDS011;6652;48.802;9.190;2023-04-25T13:45:20;10.73;;;5.90;;
13173;SDS011;6652;48.802;9.190;2023-04-25T13:47:52;12.35;;;7.65;;
13173;SDS011;6652;48.802;9.190;2023-04-25T13:50:32;13.15;;;7.32;;
13173;SDS011;6652;48.802;9.190;2023-04-25T13:56:17;12.02;;;8.10;;
13173;SDS011;6652;48.802;9.190;2023-04-25T14:02:25;14.35;;;8.35;;
13173;SDS011;6652;48.802;9.190;2023-04-25T14:05:14;15.88;;;8.65;;
13173;SDS011;6652;48.802;9.190;2023-04-25T14:07:41;13.80;;;8.05;;
13173;SDS011;6652;48.802;9.190;2023-04-25T14:10:28;12.98;;;7.55;;
13173;SDS011;6652;48.802;9.190;2023-04-25T14:13:12;9.73;;;6.95;;
13173;SDS011;6652;48.802;9.190;2023-04-25T14:15:43;21.20;;;7.40;;
13173;SDS011;6652;48.802;9.190;2023-04-25T14:18:18;11.63;;;7.20;;
13173;SDS011;6652;48.802;9.190;2023-04-25T14:20:45;13.27;;;7.18;;
13173;SDS011;6652;48.802;9.190;2023-04-25T14:23:13;11.57;;;6.32;;
13173;SDS011;6652;48.802;9.190;2023-04-25T14:25:45;11.27;;;6.70;;
13173;SDS011;6652;48.802;9.190;2023-04-25T14:30:55;10.52;;;5.93;;
13173;SDS011;6652;48.802;9.190;2023-04-25T14:35:56;8.10;;;5.47;;
13173;SDS011;6652;48.802;9.190;2023-04-25T14:38:27;8.20;;;4.72;;
13173;SDS011;6652;48.802;9.190;2023-04-25T14:40:58;10.20;;;5.00;;
13173;SDS011;6652;48.802;9.190;2023-04-25T14:43:28;6.28;;;4.40;;
13173;SDS011;6652;48.802;9.190;2023-04-25T14:46:01;9.20;;;4.78;;
13173;SDS011;6652;48.802;9.190;2023-04-25T14:48:49;9.82;;;4.85;;
13173;SDS011;6652;48.802;9.190;2023-04-25T14:51:20;8.38;;;5.07;;
13173;SDS011;6652;48.802;9.190;2023-04-25T14:53:49;9.27;;;5.05;;
13173;SDS011;6652;48.802;9.190;2023-04-25T14:56:17;9.68;;;5.13;;
13173;SDS011;6652;48.802;9.190;2023-04-25T14:58:49;9.35;;;5.38;;
13173;SDS011;6652;48.802;9.190;2023-04-25T15:01:41;8.07;;;5.07;;
13173;SDS011;6652;48.802;9.190;2023-04-25T15:04:23;6.93;;;4.32;;
13173;SDS011;6652;48.802;9.190;2023-04-25T15:07:12;10.38;;;5.55;;
13173;SDS011;6652;48.802;9.190;2023-04-25T15:09:48;9.05;;;4.82;;
13173;SDS011;6652;48.802;9.190;2023-04-25T15:12:18;10.45;;;5.60;;
13173;SDS011;6652;48.802;9.190;2023-04-25T15:14:58;10.18;;;5.93;;
13173;SDS011;6652;48.802;9.190;2023-04-25T15:17:28;13.63;;;5.90;;
13173;SDS011;6652;48.802;9.190;2023-04-25T15:19:56;11.20;;;5.82;;
13173;SDS011;6652;48.802;9.190;2023-04-25T15:22:25;11.20;;;6.00;;
13173;SDS011;6652;48.802;9.190;2023-04-25T15:24:56;8.45;;;5.57;;
13173;SDS011;6652;48.802;9.190;2023-04-25T15:27:28;11.35;;;5.15;;
13173;SDS011;6652;48.802;9.190;2023-04-25T15:29:58;9.20;;;5.10;;
13173;SDS011;6652;48.802;9.190;2023-04-25T15:32:35;10.98;;;5.85;;
13173;SDS011;6652;48.802;9.190;2023-04-25T15:35:16;9.38;;;5.28;;
13173;SDS011;6652;48.802;9.190;2023-04-25T15:37:46;11.05;;;5.53;;
13173;SDS011;6652;48.802;9.190;2023-04-25T15:40:23;12.27;;;5.47;;
13173;SDS011;6652;48.802;9.190;2023-04-25T15:42:52;7.85;;;4.75;;
13173;SDS011;6652;48.802;9.190;2023-04-25T15:45:26;12.82;;;4.95;;
13173;SDS011;6652;48.802;9.190;2023-04-25T15:47:55;9.15;;;5.07;;
13173;SDS011;6652;48.802;9.190;2023-04-25T15:50:25;8.20;;;5.05;;
13173;SDS011;6652;48.802;9.190;2023-04-25T15:52:57;9.32;;;5.55;;
13173;SDS011;6652;48.802;9.190;2023-04-25T15:55:25;14.38;;;5.43;;
13173;SDS011;6652;48.802;9.190;2023-04-25T15:57:58;8.23;;;5.50;;
13173;SDS011;6652;48.802;9.190;2023-04-25T16:00:31;10.85;;;5.32;;
13173;SDS011;6652;48.802;9.190;2023-04-25T16:03:06;10.15;;;6.30;;
13173;SDS011;6652;48.802;9.190;2023-04-25T16:05:35;11.68;;;6.88;;
13173;SDS011;6652;48.802;9.190;2023-04-25T16:08:07;13.70;;;6.00;;
13173;SDS011;6652;48.802;9.190;2023-04-25T16:10:50;10.75;;;5.82;;
13173;SDS011;6652;48.802;9.190;2023-04-25T16:13:39;10.35;;;5.45;;
13173;SDS011;6652;48.802;9.190;2023-04-25T16:18:43;10.65;;;6.25;;
13173;SDS011;6652;48.802;9.190;2023-04-25T16:21:11;10.18;;;5.15;;
13173;SDS011;6652;48.802;9.190;2023-04-25T16:23:40;12.27;;;5.70;;
13173;SDS011;6652;48.802;9.190;2023-04-25T16:26:14;7.95;;;4.80;;
13173;SDS011;6652;48.802;9.190;2023-04-25T16:28:51;16.05;;;5.57;;
13173;SDS011;6652;48.802;9.190;2023-04-25T16:31:19;8.88;;;5.30;;
13173;SDS011;6652;48.802;9.190;2023-04-25T16:33:52;8.85;;;5.28;;
13173;SDS011;6652;48.802;9.190;2023-04-25T16:36:19;10.35;;;5.40;;
13173;SDS011;6652;48.802;9.190;2023-04-25T16:38:48;10.05;;;5.20;;
13173;SDS011;6652;48.802;9.190;2023-04-25T16:41:18;13.23;;;6.15;;
13173;SDS011;6652;48.802;9.190;2023-04-25T16:43:45;9.63;;;5.60;;
13173;SDS011;6652;48.802;9.190;2023-04-25T16:46:19;9.38;;;5.50;;
13173;SDS011;6652;48.802;9.190;2023-04-25T16:48:47;9.75;;;5.32;;
13173;SDS011;6652;48.802;9.190;2023-04-25T16:51:17;9.77;;;5.20;;
13173;SDS011;6652;48.802;9.190;2023-04-25T16:53:47;12.52;;;5.70;;
13173;SDS011;6652;48.802;9.190;2023-04-25T16:56:17;12.68;;;5.72;;
13173;SDS011;6652;48.802;9.190;2023-04-25T16:58:50;9.15;;;4.80;;
13173;SDS011;6652;48.802;9.190;2023-04-25T17:01:22;14.75;;;5.53;;
13173;SDS011;6652;48.802;9.190;2023-04-25T17:03:56;10.82;;;5.60;;
13173;SDS011;6652;48.802;9.190;2023-04-25T17:06:27;10.80;;;5.75;;
13173;SDS011;6652;48.802;9.190;2023-04-25T17:09:01;12.43;;;5.78;;
13173;SDS011;6652;48.802;9.190;2023-04-25T17:11:30;11.68;;;5.30;;
13173;SDS011;6652;48.802;9.190;2023-04-25T17:13:57;9.43;;;5.22;;
13173;SDS011;6652;48.802;9.190;2023-04-25T17:16:32;13.60;;;6.05;;
13173;SDS011;6652;48.802;9.190;2023-04-25T17:19:03;13.07;;;6.20;;
13173;SDS011;6652;48.802;9.190;2023-04-25T17:21:33;10.70;;;5.97;;
13173;SDS011;6652;48.802;9.190;2023-04-25T17:26:33;13.10;;;6.15;;
13173;SDS011;6652;48.802;9.190;2023-04-25T17:29:01;14.85;;;5.80;;
13173;SDS011;6652;48.802;9.190;2023-04-25T17:31:34;10.30;;;5.65;;
13173;SDS011;6652;48.802;9.190;2023-04-25T17:34:01;11.25;;;6.13;;
13173;SDS011;6652;48.802;9.190;2023-04-25T17:36:38;11.93;;;6.07;;
13173;SDS011;6652;48.802;9.190;2023-04-25T17:39:07;12.40;;;5.88;;
13173;SDS011;6652;48.802;9.190;2023-04-25T17:44:18;15.02;;;7.35;;